Tinian International Airport
PGWT : now visible

Airfield :











YOU CAN JOIN US ON...

 
LOGIN :

Register | Disclaimer

   EN    FR    IT 

 









Legend :    VFR   Marginal VFR   IFR   Intensive IFR   Very Intensive IFR
Visi :
Ceiling :
>= 8 km
>= 3000ft
5 to 8 km
1000 to 3000 ft
1500m to 5 km
500 to 1000 ft
800 to 1500m
200 to 500 ft
< 800m
< 200 ft
Symbols :   Thunderstorms  Fog  Heavy snow  Heavy precipitations  Wind > 20 kt






- Airport Elevation : 271 ft
- IATA code : TIQ


PGWT - Tinian International

CURRENT METAR :
  • 162255Z 06011KT 7SM SCT015 BKN150 BKN180 29/26 A2992

EXPIRED METARs :
  • 162155Z 07011KT 7SM SCT015 SCT080 BKN140 28/26 A2992
  • 162059Z 09010KT 7SM VCSH SCT015 SCT090 BKN120 27/25 A2990 RMK VCSH W-SW

TAF PGWT
Valid from the 17 at 00:00 until the 18 at 00:00 UTC


162333Z 1700/1724 07011KT P6SM VCSH SCT018 SCT040 BKN100
TEMPO 1702/1706 5SM SHRA SCT012 BKN020
FM170900 09011KT P6SM VCSH SCT016 SCT040 BKN120



MET'MAP, your aeronautical weather chart ! - Copyright ORBIFLY December 2007 - Disclaimer

ORBIFLY MET'MAP TEAM :

Programming & Development : Alexandra Zaïnal
Concept & Development : Baudouin d'Aumeries
Co-Development & Prog : Marc-Olivier Méhu
Technical & hardware support : Manuel Goepfert

Contact : metmap@orbifly.com




SOURCES & CREDITS :

   NOAA       Earth
Advisory